sensor_id;sensor_type;location;lat;lon;timestamp;pressure;altitude;pressure_sealevel;temperature;humidity
23733;BME280;12047;53.450;-2.286;2023-09-07T00:02:26;101657.94;;;27.66;100.00
23733;BME280;12047;53.450;-2.286;2023-09-07T00:07:26;101646.78;;;27.49;100.00
23733;BME280;12047;53.450;-2.286;2023-09-07T00:12:27;101635.13;;;27.78;100.00
23733;BME280;12047;53.450;-2.286;2023-09-07T00:17:27;101642.09;;;27.74;100.00
23733;BME280;12047;53.450;-2.286;2023-09-07T00:22:28;101655.00;;;27.67;100.00
23733;BME280;12047;53.450;-2.286;2023-09-07T00:27:28;101655.94;;;27.73;100.00
23733;BME280;12047;53.450;-2.286;2023-09-07T00:32:29;101661.03;;;27.69;100.00
23733;BME280;12047;53.450;-2.286;2023-09-07T00:37:29;101662.22;;;27.55;100.00
23733;BME280;12047;53.450;-2.286;2023-09-07T00:42:30;101659.38;;;27.68;100.00
23733;BME280;12047;53.450;-2.286;2023-09-07T00:47:33;101657.75;;;27.79;100.00
23733;BME280;12047;53.450;-2.286;2023-09-07T00:52:34;101656.78;;;27.73;100.00
23733;BME280;12047;53.450;-2.286;2023-09-07T00:57:36;101646.44;;;27.02;100.00
23733;BME280;12047;53.450;-2.286;2023-09-07T01:02:39;101634.69;;;26.59;100.00
23733;BME280;12047;53.450;-2.286;2023-09-07T01:07:56;101636.84;;;26.75;100.00
23733;BME280;12047;53.450;-2.286;2023-09-07T01:12:58;101625.28;;;26.55;100.00
23733;BME280;12047;53.450;-2.286;2023-09-07T01:17:58;101627.53;;;26.64;100.00
23733;BME280;12047;53.450;-2.286;2023-09-07T01:23:00;101622.28;;;27.31;100.00
23733;BME280;12047;53.450;-2.286;2023-09-07T01:28:01;101632.88;;;27.57;100.00
23733;BME280;12047;53.450;-2.286;2023-09-07T01:33:02;101640.44;;;27.55;100.00
23733;BME280;12047;53.450;-2.286;2023-09-07T01:38:03;101645.34;;;27.28;100.00
23733;BME280;12047;53.450;-2.286;2023-09-07T01:43:04;101645.31;;;26.85;100.00
23733;BME280;12047;53.450;-2.286;2023-09-07T01:48:08;101635.44;;;27.34;100.00
23733;BME280;12047;53.450;-2.286;2023-09-07T01:53:10;101655.44;;;27.46;100.00
23733;BME280;12047;53.450;-2.286;2023-09-07T01:58:10;101660.19;;;26.83;100.00
23733;BME280;12047;53.450;-2.286;2023-09-07T02:03:11;101654.66;;;26.71;100.00
23733;BME280;12047;53.450;-2.286;2023-09-07T02:08:11;101645.56;;;26.59;100.00
23733;BME280;12047;53.450;-2.286;2023-09-07T02:13:12;101655.06;;;26.99;100.00
23733;BME280;12047;53.450;-2.286;2023-09-07T02:18:12;101650.41;;;27.25;100.00
23733;BME280;12047;53.450;-2.286;2023-09-07T02:23:13;101658.38;;;27.01;100.00
23733;BME280;12047;53.450;-2.286;2023-09-07T02:28:14;101645.72;;;26.89;100.00
23733;BME280;12047;53.450;-2.286;2023-09-07T02:33:15;101647.78;;;26.93;100.00
23733;BME280;12047;53.450;-2.286;2023-09-07T02:38:15;101646.50;;;27.21;100.00
23733;BME280;12047;53.450;-2.286;2023-09-07T02:43:16;101643.31;;;26.74;100.00
23733;BME280;12047;53.450;-2.286;2023-09-07T02:48:17;101649.50;;;27.13;100.00
23733;BME280;12047;53.450;-2.286;2023-09-07T02:53:17;101666.16;;;26.98;100.00
23733;BME280;12047;53.450;-2.286;2023-09-07T02:58:18;101675.97;;;26.99;100.00
23733;BME280;12047;53.450;-2.286;2023-09-07T03:03:18;101674.13;;;26.68;100.00
23733;BME280;12047;53.450;-2.286;2023-09-07T03:08:19;101666.75;;;25.67;100.00
23733;BME280;12047;53.450;-2.286;2023-09-07T03:13:19;101633.06;;;25.75;100.00
23733;BME280;12047;53.450;-2.286;2023-09-07T03:18:20;101649.91;;;26.28;100.00
23733;BME280;12047;53.450;-2.286;2023-09-07T03:23:20;101659.09;;;26.90;100.00
23733;BME280;12047;53.450;-2.286;2023-09-07T03:28:21;101653.44;;;26.92;100.00
23733;BME280;12047;53.450;-2.286;2023-09-07T03:33:22;101652.44;;;26.86;100.00
23733;BME280;12047;53.450;-2.286;2023-09-07T03:38:22;101655.63;;;26.52;100.00
23733;BME280;12047;53.450;-2.286;2023-09-07T03:43:23;101638.66;;;26.81;100.00
23733;BME280;12047;53.450;-2.286;2023-09-07T03:48:23;101634.69;;;27.08;100.00
23733;BME280;12047;53.450;-2.286;2023-09-07T03:53:24;101626.44;;;27.15;100.00
23733;BME280;12047;53.450;-2.286;2023-09-07T03:58:25;101602.88;;;26.34;100.00
23733;BME280;12047;53.450;-2.286;2023-09-07T04:03:25;101546.34;;;26.18;100.00
23733;BME280;12047;53.450;-2.286;2023-09-07T04:08:26;101542.81;;;26.67;100.00
23733;BME280;12047;53.450;-2.286;2023-09-07T04:13:27;101546.50;;;26.23;100.00
23733;BME280;12047;53.450;-2.286;2023-09-07T04:18:27;101546.38;;;25.80;100.00
23733;BME280;12047;53.450;-2.286;2023-09-07T04:23:27;101561.50;;;25.69;100.00
23733;BME280;12047;53.450;-2.286;2023-09-07T04:28:28;101563.63;;;25.54;100.00
23733;BME280;12047;53.450;-2.286;2023-09-07T04:33:32;101558.44;;;26.22;100.00
23733;BME280;12047;53.450;-2.286;2023-09-07T04:38:33;101534.00;;;25.91;100.00
23733;BME280;12047;53.450;-2.286;2023-09-07T04:43:34;101528.16;;;25.94;100.00
23733;BME280;12047;53.450;-2.286;2023-09-07T04:48:35;101533.69;;;26.37;100.00
23733;BME280;12047;53.450;-2.286;2023-09-07T04:53:37;101528.06;;;26.75;100.00
23733;BME280;12047;53.450;-2.286;2023-09-07T04:58:37;101516.84;;;25.65;100.00
23733;BME280;12047;53.450;-2.286;2023-09-07T05:03:38;101510.28;;;25.35;100.00
23733;BME280;12047;53.450;-2.286;2023-09-07T05:08:40;101511.13;;;25.35;100.00
23733;BME280;12047;53.450;-2.286;2023-09-07T05:13:40;101512.28;;;25.53;100.00
23733;BME280;12047;53.450;-2.286;2023-09-07T05:18:41;101501.19;;;25.61;100.00
23733;BME280;12047;53.450;-2.286;2023-09-07T05:23:43;101510.06;;;26.06;100.00
23733;BME280;12047;53.450;-2.286;2023-09-07T05:28:43;101515.72;;;26.04;100.00
23733;BME280;12047;53.450;-2.286;2023-09-07T05:33:44;101527.38;;;26.43;100.00
23733;BME280;12047;53.450;-2.286;2023-09-07T05:38:44;101528.72;;;26.52;100.00
23733;BME280;12047;53.450;-2.286;2023-09-07T05:43:45;101545.84;;;26.77;100.00
23733;BME280;12047;53.450;-2.286;2023-09-07T05:48:45;101557.72;;;26.58;100.00
23733;BME280;12047;53.450;-2.286;2023-09-07T05:53:46;101587.28;;;26.48;100.00
23733;BME280;12047;53.450;-2.286;2023-09-07T05:58:46;101592.06;;;26.53;100.00
23733;BME280;12047;53.450;-2.286;2023-09-07T06:03:47;101592.19;;;26.39;100.00
23733;BME280;12047;53.450;-2.286;2023-09-07T06:08:47;101605.84;;;26.58;100.00
23733;BME280;12047;53.450;-2.286;2023-09-07T06:13:48;101612.16;;;26.52;100.00
23733;BME280;12047;53.450;-2.286;2023-09-07T06:18:49;101612.03;;;26.02;100.00
23733;BME280;12047;53.450;-2.286;2023-09-07T06:23:49;101594.63;;;26.16;100.00
23733;BME280;12047;53.450;-2.286;2023-09-07T06:28:50;101573.84;;;25.59;100.00
23733;BME280;12047;53.450;-2.286;2023-09-07T06:33:50;101587.25;;;26.30;100.00
23733;BME280;12047;53.450;-2.286;2023-09-07T06:38:51;101565.78;;;25.84;100.00
23733;BME280;12047;53.450;-2.286;2023-09-07T06:43:51;101587.56;;;26.08;100.00
23733;BME280;12047;53.450;-2.286;2023-09-07T06:48:52;101592.84;;;26.60;100.00
23733;BME280;12047;53.450;-2.286;2023-09-07T06:53:52;101577.28;;;25.86;100.00
23733;BME280;12047;53.450;-2.286;2023-09-07T06:58:53;101570.56;;;26.20;100.00
23733;BME280;12047;53.450;-2.286;2023-09-07T07:03:54;101567.88;;;26.20;100.00
23733;BME280;12047;53.450;-2.286;2023-09-07T07:08:54;101578.06;;;26.74;100.00
23733;BME280;12047;53.450;-2.286;2023-09-07T07:13:55;101580.44;;;26.89;100.00
23733;BME280;12047;53.450;-2.286;2023-09-07T07:18:55;101621.13;;;27.02;100.00
23733;BME280;12047;53.450;-2.286;2023-09-07T07:23:56;101633.66;;;26.78;100.00
23733;BME280;12047;53.450;-2.286;2023-09-07T07:28:56;101614.59;;;27.46;100.00
23733;BME280;12047;53.450;-2.286;2023-09-07T07:33:56;101603.25;;;26.88;100.00
23733;BME280;12047;53.450;-2.286;2023-09-07T07:38:57;101602.03;;;27.45;100.00
23733;BME280;12047;53.450;-2.286;2023-09-07T07:43:57;101588.97;;;27.35;100.00
23733;BME280;12047;53.450;-2.286;2023-09-07T07:48:58;101585.09;;;27.43;100.00
23733;BME280;12047;53.450;-2.286;2023-09-07T07:53:59;101586.31;;;27.65;100.00
23733;BME280;12047;53.450;-2.286;2023-09-07T07:58:59;101605.41;;;28.07;100.00
23733;BME280;12047;53.450;-2.286;2023-09-07T08:04:00;101621.59;;;27.90;100.00
23733;BME280;12047;53.450;-2.286;2023-09-07T08:09:00;101614.00;;;28.22;100.00
23733;BME280;12047;53.450;-2.286;2023-09-07T08:14:01;101625.69;;;28.11;100.00
23733;BME280;12047;53.450;-2.286;2023-09-07T08:19:02;101616.81;;;28.46;100.00
23733;BME280;12047;53.450;-2.286;2023-09-07T08:24:04;101621.06;;;28.53;100.00
23733;BME280;12047;53.450;-2.286;2023-09-07T08:29:05;101630.97;;;29.13;100.00
23733;BME280;12047;53.450;-2.286;2023-09-07T08:34:08;101644.25;;;29.09;100.00
23733;BME280;12047;53.450;-2.286;2023-09-07T08:39:15;101635.91;;;29.39;100.00
23733;BME280;12047;53.450;-2.286;2023-09-07T08:44:17;101623.25;;;29.09;100.00
23733;BME280;12047;53.450;-2.286;2023-09-07T08:49:19;101630.50;;;29.96;100.00
23733;BME280;12047;53.450;-2.286;2023-09-07T08:54:20;101629.88;;;30.17;100.00
23733;BME280;12047;53.450;-2.286;2023-09-07T08:59:22;101621.97;;;30.21;100.00
23733;BME280;12047;53.450;-2.286;2023-09-07T09:04:23;101631.78;;;30.17;100.00
23733;BME280;12047;53.450;-2.286;2023-09-07T09:09:24;101625.25;;;29.77;100.00
23733;BME280;12047;53.450;-2.286;2023-09-07T09:14:25;101623.53;;;30.00;100.00
23733;BME280;12047;53.450;-2.286;2023-09-07T09:19:35;101624.84;;;30.42;100.00
23733;BME280;12047;53.450;-2.286;2023-09-07T09:24:36;101621.91;;;29.87;100.00
23733;BME280;12047;53.450;-2.286;2023-09-07T09:29:38;101620.13;;;30.71;100.00
23733;BME280;12047;53.450;-2.286;2023-09-07T09:34:39;101626.25;;;31.34;100.00
23733;BME280;12047;53.450;-2.286;2023-09-07T09:39:40;101616.41;;;30.77;100.00
23733;BME280;12047;53.450;-2.286;2023-09-07T09:44:43;101606.09;;;30.18;100.00
23733;BME280;12047;53.450;-2.286;2023-09-07T09:49:44;101600.34;;;30.64;100.00
23733;BME280;12047;53.450;-2.286;2023-09-07T09:54:45;101611.53;;;30.01;100.00
23733;BME280;12047;53.450;-2.286;2023-09-07T09:59:46;101602.00;;;30.20;100.00
23733;BME280;12047;53.450;-2.286;2023-09-07T10:04:49;101599.50;;;30.64;100.00
23733;BME280;12047;53.450;-2.286;2023-09-07T10:09:50;101593.84;;;30.70;100.00
23733;BME280;12047;53.450;-2.286;2023-09-07T10:14:51;101584.66;;;30.60;100.00
23733;BME280;12047;53.450;-2.286;2023-09-07T10:20:02;101585.81;;;31.19;100.00
23733;BME280;12047;53.450;-2.286;2023-09-07T10:25:05;101587.47;;;31.20;97.68
23733;BME280;12047;53.450;-2.286;2023-09-07T10:30:12;101583.38;;;31.88;89.35
23733;BME280;12047;53.450;-2.286;2023-09-07T10:35:24;101581.28;;;32.27;81.63
23733;BME280;12047;53.450;-2.286;2023-09-07T10:40:26;101577.97;;;32.25;78.14
23733;BME280;12047;53.450;-2.286;2023-09-07T10:45:26;101580.50;;;32.32;77.68
23733;BME280;12047;53.450;-2.286;2023-09-07T10:50:27;101585.97;;;32.64;76.79
23733;BME280;12047;53.450;-2.286;2023-09-07T10:55:27;101576.50;;;32.50;77.57
23733;BME280;12047;53.450;-2.286;2023-09-07T11:00:28;101567.41;;;32.44;77.81
23733;BME280;12047;53.450;-2.286;2023-09-07T11:05:29;101563.84;;;32.43;76.08
23733;BME280;12047;53.450;-2.286;2023-09-07T11:10:32;101558.66;;;32.84;73.50
23733;BME280;12047;53.450;-2.286;2023-09-07T11:15:33;101549.94;;;31.64;77.55
23733;BME280;12047;53.450;-2.286;2023-09-07T11:20:35;101555.56;;;32.33;77.31
23733;BME280;12047;53.450;-2.286;2023-09-07T11:25:37;101546.41;;;32.23;77.05
23733;BME280;12047;53.450;-2.286;2023-09-07T11:30:48;101540.56;;;32.83;74.97
23733;BME280;12047;53.450;-2.286;2023-09-07T11:35:50;101537.25;;;32.81;76.67
23733;BME280;12047;53.450;-2.286;2023-09-07T11:40:53;101533.56;;;32.28;77.80
23733;BME280;12047;53.450;-2.286;2023-09-07T11:45:53;101531.16;;;32.74;77.14
23733;BME280;12047;53.450;-2.286;2023-09-07T11:50:54;101526.53;;;33.47;77.98
23733;BME280;12047;53.450;-2.286;2023-09-07T11:55:55;101513.41;;;32.50;80.28
23733;BME280;12047;53.450;-2.286;2023-09-07T12:00:56;101512.28;;;32.45;81.37
23733;BME280;12047;53.450;-2.286;2023-09-07T12:05:56;101514.16;;;33.44;77.76
23733;BME280;12047;53.450;-2.286;2023-09-07T12:10:57;101513.53;;;32.70;79.97
23733;BME280;12047;53.450;-2.286;2023-09-07T12:15:57;101511.34;;;32.72;82.90
23733;BME280;12047;53.450;-2.286;2023-09-07T12:20:57;101505.88;;;32.72;82.67
23733;BME280;12047;53.450;-2.286;2023-09-07T12:25:58;101497.44;;;33.66;80.98
23733;BME280;12047;53.450;-2.286;2023-09-07T12:31:00;101492.53;;;33.78;77.42
23733;BME280;12047;53.450;-2.286;2023-09-07T12:36:00;101506.78;;;33.60;82.04
23733;BME280;12047;53.450;-2.286;2023-09-07T12:41:03;101502.00;;;33.15;85.49
23733;BME280;12047;53.450;-2.286;2023-09-07T12:46:04;101489.00;;;32.48;88.53
23733;BME280;12047;53.450;-2.286;2023-09-07T12:51:04;101490.72;;;33.11;86.87
23733;BME280;12047;53.450;-2.286;2023-09-07T12:56:06;101489.84;;;32.54;87.58
23733;BME280;12047;53.450;-2.286;2023-09-07T13:01:06;101489.19;;;33.56;89.21
23733;BME280;12047;53.450;-2.286;2023-09-07T13:06:10;101487.88;;;33.94;90.35
23733;BME280;12047;53.450;-2.286;2023-09-07T13:11:11;101484.78;;;33.50;91.52
23733;BME280;12047;53.450;-2.286;2023-09-07T13:16:12;101483.16;;;33.54;86.27
23733;BME280;12047;53.450;-2.286;2023-09-07T13:21:13;101477.03;;;33.27;88.91
23733;BME280;12047;53.450;-2.286;2023-09-07T13:26:14;101464.53;;;33.87;89.94
23733;BME280;12047;53.450;-2.286;2023-09-07T13:31:14;101464.81;;;32.87;91.82
23733;BME280;12047;53.450;-2.286;2023-09-07T13:36:15;101457.28;;;33.30;92.66
23733;BME280;12047;53.450;-2.286;2023-09-07T13:41:15;101466.28;;;33.15;92.58
23733;BME280;12047;53.450;-2.286;2023-09-07T13:46:16;101454.28;;;33.52;91.00
23733;BME280;12047;53.450;-2.286;2023-09-07T13:51:16;101445.19;;;32.63;97.25
23733;BME280;12047;53.450;-2.286;2023-09-07T13:56:20;101443.94;;;32.81;98.29
23733;BME280;12047;53.450;-2.286;2023-09-07T14:01:20;101445.94;;;33.11;96.95
23733;BME280;12047;53.450;-2.286;2023-09-07T14:06:21;101442.53;;;33.87;92.59
23733;BME280;12047;53.450;-2.286;2023-09-07T14:11:24;101434.34;;;32.94;100.00
23733;BME280;12047;53.450;-2.286;2023-09-07T14:16:24;101435.00;;;33.16;100.00
23733;BME280;12047;53.450;-2.286;2023-09-07T14:21:25;101435.59;;;33.28;100.00
23733;BME280;12047;53.450;-2.286;2023-09-07T14:26:25;101430.94;;;33.34;98.78
23733;BME280;12047;53.450;-2.286;2023-09-07T14:31:26;101425.72;;;33.58;96.81
23733;BME280;12047;53.450;-2.286;2023-09-07T14:36:26;101434.75;;;33.33;97.07
23733;BME280;12047;53.450;-2.286;2023-09-07T14:41:27;101426.53;;;33.53;96.52
23733;BME280;12047;53.450;-2.286;2023-09-07T14:46:28;101423.16;;;33.10;98.13
23733;BME280;12047;53.450;-2.286;2023-09-07T14:51:29;101423.25;;;33.76;96.57
23733;BME280;12047;53.450;-2.286;2023-09-07T14:56:30;101411.63;;;33.08;100.00
23733;BME280;12047;53.450;-2.286;2023-09-07T15:01:35;101408.28;;;32.86;100.00
23733;BME280;12047;53.450;-2.286;2023-09-07T15:06:36;101392.13;;;32.42;100.00
23733;BME280;12047;53.450;-2.286;2023-09-07T15:11:39;101388.66;;;32.62;100.00
23733;BME280;12047;53.450;-2.286;2023-09-07T15:16:39;101383.31;;;32.98;100.00
23733;BME280;12047;53.450;-2.286;2023-09-07T15:21:40;101381.06;;;32.79;100.00
23733;BME280;12047;53.450;-2.286;2023-09-07T15:26:45;101376.97;;;32.82;100.00
23733;BME280;12047;53.450;-2.286;2023-09-07T15:31:45;101371.25;;;33.24;100.00
23733;BME280;12047;53.450;-2.286;2023-09-07T15:36:46;101366.31;;;33.06;99.17
23733;BME280;12047;53.450;-2.286;2023-09-07T15:41:47;101369.75;;;32.66;99.81
23733;BME280;12047;53.450;-2.286;2023-09-07T15:46:49;101361.44;;;32.51;95.77
23733;BME280;12047;53.450;-2.286;2023-09-07T15:51:50;101352.69;;;32.54;93.69
23733;BME280;12047;53.450;-2.286;2023-09-07T15:56:50;101368.06;;;32.55;92.47
23733;BME280;12047;53.450;-2.286;2023-09-07T16:01:51;101362.75;;;33.10;89.94
23733;BME280;12047;53.450;-2.286;2023-09-07T16:06:51;101360.53;;;33.18;87.61
23733;BME280;12047;53.450;-2.286;2023-09-07T16:11:53;101357.66;;;32.67;88.63
23733;BME280;12047;53.450;-2.286;2023-09-07T16:16:54;101345.16;;;33.22;91.52
23733;BME280;12047;53.450;-2.286;2023-09-07T16:21:54;101345.44;;;32.90;90.75
23733;BME280;12047;53.450;-2.286;2023-09-07T16:26:55;101337.53;;;33.34;91.04
23733;BME280;12047;53.450;-2.286;2023-09-07T16:31:55;101344.34;;;33.06;91.40
23733;BME280;12047;53.450;-2.286;2023-09-07T16:36:56;101326.94;;;32.60;91.54
23733;BME280;12047;53.450;-2.286;2023-09-07T16:41:56;101322.09;;;32.87;93.80
23733;BME280;12047;53.450;-2.286;2023-09-07T16:46:57;101324.63;;;32.31;100.00
23733;BME280;12047;53.450;-2.286;2023-09-07T16:51:57;101317.06;;;32.64;100.00
23733;BME280;12047;53.450;-2.286;2023-09-07T16:56:58;101319.84;;;32.11;100.00
23733;BME280;12047;53.450;-2.286;2023-09-07T17:01:58;101319.19;;;32.41;100.00
23733;BME280;12047;53.450;-2.286;2023-09-07T17:06:59;101316.97;;;32.38;100.00
23733;BME280;12047;53.450;-2.286;2023-09-07T17:12:00;101310.91;;;32.31;100.00
23733;BME280;12047;53.450;-2.286;2023-09-07T17:17:00;101308.53;;;31.98;100.00
23733;BME280;12047;53.450;-2.286;2023-09-07T17:22:01;101303.81;;;32.35;100.00
23733;BME280;12047;53.450;-2.286;2023-09-07T17:27:01;101306.66;;;32.08;100.00
23733;BME280;12047;53.450;-2.286;2023-09-07T17:32:02;101307.97;;;31.96;100.00
23733;BME280;12047;53.450;-2.286;2023-09-07T17:37:03;101299.81;;;32.06;100.00
23733;BME280;12047;53.450;-2.286;2023-09-07T17:42:04;101315.94;;;32.55;100.00
23733;BME280;12047;53.450;-2.286;2023-09-07T17:47:05;101319.38;;;32.25;100.00
23733;BME280;12047;53.450;-2.286;2023-09-07T17:52:05;101323.50;;;31.80;100.00
23733;BME280;12047;53.450;-2.286;2023-09-07T17:57:06;101297.63;;;32.08;100.00
23733;BME280;12047;53.450;-2.286;2023-09-07T18:02:20;101296.59;;;31.72;100.00
23733;BME280;12047;53.450;-2.286;2023-09-07T18:07:23;101288.63;;;31.33;100.00
23733;BME280;12047;53.450;-2.286;2023-09-07T18:12:23;101295.84;;;31.50;100.00
23733;BME280;12047;53.450;-2.286;2023-09-07T18:17:24;101295.41;;;30.99;100.00
23733;BME280;12047;53.450;-2.286;2023-09-07T18:22:25;101299.69;;;31.49;100.00
23733;BME280;12047;53.450;-2.286;2023-09-07T18:27:25;101299.28;;;31.30;100.00
23733;BME280;12047;53.450;-2.286;2023-09-07T18:32:27;101297.53;;;31.19;100.00
23733;BME280;12047;53.450;-2.286;2023-09-07T18:37:27;101301.25;;;31.07;100.00
23733;BME280;12047;53.450;-2.286;2023-09-07T18:42:28;101298.19;;;31.04;100.00
23733;BME280;12047;53.450;-2.286;2023-09-07T18:47:28;101306.50;;;31.46;100.00
23733;BME280;12047;53.450;-2.286;2023-09-07T18:52:30;101309.59;;;31.92;100.00
23733;BME280;12047;53.450;-2.286;2023-09-07T18:57:31;101308.72;;;31.49;100.00
23733;BME280;12047;53.450;-2.286;2023-09-07T19:02:31;101324.28;;;31.43;100.00
23733;BME280;12047;53.450;-2.286;2023-09-07T19:07:32;101332.28;;;31.50;100.00
23733;BME280;12047;53.450;-2.286;2023-09-07T19:12:37;101325.94;;;31.44;100.00
23733;BME280;12047;53.450;-2.286;2023-09-07T19:17:38;101340.41;;;30.59;100.00
23733;BME280;12047;53.450;-2.286;2023-09-07T19:22:38;101330.03;;;30.39;100.00
23733;BME280;12047;53.450;-2.286;2023-09-07T19:27:39;101338.66;;;30.53;100.00
23733;BME280;12047;53.450;-2.286;2023-09-07T19:32:42;101343.84;;;30.98;100.00
23733;BME280;12047;53.450;-2.286;2023-09-07T19:37:42;101353.66;;;30.94;100.00
23733;BME280;12047;53.450;-2.286;2023-09-07T19:42:43;101376.97;;;30.75;100.00
23733;BME280;12047;53.450;-2.286;2023-09-07T19:47:43;101372.44;;;29.70;100.00
23733;BME280;12047;53.450;-2.286;2023-09-07T19:52:44;101353.91;;;29.72;100.00
23733;BME280;12047;53.450;-2.286;2023-09-07T19:57:46;101366.53;;;29.28;100.00
23733;BME280;12047;53.450;-2.286;2023-09-07T20:02:47;101370.19;;;29.33;100.00
23733;BME280;12047;53.450;-2.286;2023-09-07T20:07:47;101375.69;;;29.22;100.00
23733;BME280;12047;53.450;-2.286;2023-09-07T20:12:50;101380.88;;;29.06;100.00
23733;BME280;12047;53.450;-2.286;2023-09-07T20:17:51;101382.50;;;29.36;100.00
23733;BME280;12047;53.450;-2.286;2023-09-07T20:22:53;101373.28;;;29.08;100.00
23733;BME280;12047;53.450;-2.286;2023-09-07T20:27:53;101380.13;;;28.94;100.00
23733;BME280;12047;53.450;-2.286;2023-09-07T20:32:53;101382.25;;;28.92;100.00
23733;BME280;12047;53.450;-2.286;2023-09-07T20:37:54;101382.00;;;28.94;100.00
23733;BME280;12047;53.450;-2.286;2023-09-07T20:42:55;101394.25;;;28.91;100.00
23733;BME280;12047;53.450;-2.286;2023-09-07T20:47:57;101389.03;;;28.78;100.00
23733;BME280;12047;53.450;-2.286;2023-09-07T20:52:57;101396.38;;;28.77;100.00
23733;BME280;12047;53.450;-2.286;2023-09-07T20:57:58;101382.78;;;28.66;100.00
23733;BME280;12047;53.450;-2.286;2023-09-07T21:02:58;101391.03;;;28.42;100.00
23733;BME280;12047;53.450;-2.286;2023-09-07T21:07:59;101398.34;;;28.54;100.00
23733;BME280;12047;53.450;-2.286;2023-09-07T21:13:00;101394.88;;;28.70;100.00
23733;BME280;12047;53.450;-2.286;2023-09-07T21:18:00;101380.25;;;28.36;100.00
23733;BME280;12047;53.450;-2.286;2023-09-07T21:23:01;101384.84;;;28.35;100.00
23733;BME280;12047;53.450;-2.286;2023-09-07T21:28:02;101373.84;;;28.42;100.00
23733;BME280;12047;53.450;-2.286;2023-09-07T21:33:03;101384.38;;;28.03;100.00
23733;BME280;12047;53.450;-2.286;2023-09-07T21:38:04;101374.91;;;27.83;100.00
23733;BME280;12047;53.450;-2.286;2023-09-07T21:43:05;101374.19;;;28.46;100.00
23733;BME280;12047;53.450;-2.286;2023-09-07T21:48:05;101377.03;;;28.39;100.00
23733;BME280;12047;53.450;-2.286;2023-09-07T21:53:06;101372.66;;;28.38;100.00
23733;BME280;12047;53.450;-2.286;2023-09-07T21:58:07;101374.66;;;28.42;100.00
23733;BME280;12047;53.450;-2.286;2023-09-07T22:03:08;101365.47;;;28.20;100.00
23733;BME280;12047;53.450;-2.286;2023-09-07T22:08:11;101366.63;;;28.24;100.00
23733;BME280;12047;53.450;-2.286;2023-09-07T22:13:11;101366.34;;;28.49;100.00
23733;BME280;12047;53.450;-2.286;2023-09-07T22:18:12;101372.66;;;28.38;100.00
23733;BME280;12047;53.450;-2.286;2023-09-07T22:23:12;101373.59;;;27.97;100.00
23733;BME280;12047;53.450;-2.286;2023-09-07T22:28:13;101376.19;;;28.03;100.00
23733;BME280;12047;53.450;-2.286;2023-09-07T22:33:14;101379.09;;;27.55;100.00
23733;BME280;12047;53.450;-2.286;2023-09-07T22:38:15;101382.81;;;27.72;100.00
23733;BME280;12047;53.450;-2.286;2023-09-07T22:43:15;101387.94;;;27.39;100.00
23733;BME280;12047;53.450;-2.286;2023-09-07T22:48:16;101381.22;;;27.41;100.00
23733;BME280;12047;53.450;-2.286;2023-09-07T22:53:17;101383.06;;;27.29;100.00
23733;BME280;12047;53.450;-2.286;2023-09-07T22:58:22;101376.78;;;27.29;100.00
23733;BME280;12047;53.450;-2.286;2023-09-07T23:03:22;101375.38;;;26.96;100.00
23733;BME280;12047;53.450;-2.286;2023-09-07T23:08:23;101387.19;;;27.20;100.00
23733;BME280;12047;53.450;-2.286;2023-09-07T23:13:23;101380.94;;;27.31;100.00
23733;BME280;12047;53.450;-2.286;2023-09-07T23:18:24;101368.38;;;27.72;100.00
23733;BME280;12047;53.450;-2.286;2023-09-07T23:23:25;101370.16;;;27.66;100.00
23733;BME280;12047;53.450;-2.286;2023-09-07T23:28:29;101358.88;;;27.09;100.00
23733;BME280;12047;53.450;-2.286;2023-09-07T23:33:29;101357.28;;;27.32;100.00
23733;BME280;12047;53.450;-2.286;2023-09-07T23:38:30;101357.47;;;27.60;100.00
23733;BME280;12047;53.450;-2.286;2023-09-07T23:43:30;101369.13;;;27.91;100.00
23733;BME280;12047;53.450;-2.286;2023-09-07T23:48:31;101367.53;;;27.60;100.00
23733;BME280;12047;53.450;-2.286;2023-09-07T23:53:32;101363.56;;;27.32;100.00
23733;BME280;12047;53.450;-2.286;2023-09-07T23:58:32;101359.78;;;27.03;100.00
